Time;durP1;ratioP1;P1;durP2;ratioP2;P2;SDS_P1;SDS_P2;PMS_P1;PMS_P2;Temp;Humidity;BMP_temperature;BMP_pressure;BME280_temperature;BME280_humidity;BME280_pressure;Samples;Min_cycle;Max_cycle;Signal;HPM_P1;HPM_P2
2022/11/14 00:00:33;;;;;;;20.47;11.13;;;;;;;1.57;100.00;101448.84;5049080;28;20663;-82
2022/11/14 00:03:00;;;;;;;20.02;11.52;;;;;;;1.56;100.00;101454.31;5049140;28;20032;-83
2022/11/14 00:05:25;;;;;;;19.45;11.00;;;;;;;1.51;100.00;101452.22;5049687;28;20025;-82
2022/11/14 00:07:52;;;;;;;16.97;11.07;;;;;;;1.52;100.00;101453.84;5050235;28;20032;-82
2022/11/14 00:10:18;;;;;;;20.80;11.43;;;;;;;1.46;100.00;101441.41;5047891;28;20036;-82
2022/11/14 00:12:43;;;;;;;19.20;11.03;;;;;;;1.55;100.00;101444.75;5049655;28;20115;-82
2022/11/14 00:15:09;;;;;;;20.77;12.55;;;;;;;1.53;100.00;101439.66;5049769;28;20515;-83
2022/11/14 00:17:36;;;;;;;19.15;10.85;;;;;;;1.51;100.00;101437.19;5050184;28;20025;-83
2022/11/14 00:20:03;;;;;;;20.17;11.57;;;;;;;1.52;100.00;101443.28;5048772;28;20315;-82
2022/11/14 00:22:28;;;;;;;17.67;11.00;;;;;;;1.48;100.00;101436.72;5050062;28;20820;-83
2022/11/14 00:24:54;;;;;;;20.88;11.20;;;;;;;1.39;100.00;101432.53;5049207;28;20025;-82
2022/11/14 00:27:19;;;;;;;18.67;10.93;;;;;;;1.34;100.00;101427.81;5049404;28;20037;-82
2022/11/14 00:29:44;;;;;;;17.27;10.83;;;;;;;1.35;100.00;101442.66;5049528;28;20018;-82
2022/11/14 00:32:10;;;;;;;18.93;10.73;;;;;;;1.31;100.00;101433.44;5050146;28;20040;-82
2022/11/14 00:34:35;;;;;;;16.13;10.57;;;;;;;1.29;100.00;101430.97;5049849;28;20031;-82
2022/11/14 00:37:00;;;;;;;19.77;11.23;;;;;;;1.19;100.00;101419.88;5048413;28;20032;-82
2022/11/14 00:39:26;;;;;;;16.37;10.40;;;;;;;1.28;100.00;101428.53;5050102;28;20514;-82
2022/11/14 00:41:51;;;;;;;18.38;11.00;;;;;;;1.28;100.00;101408.22;5048669;28;20035;-83
2022/11/14 00:44:16;;;;;;;18.90;11.33;;;;;;;1.34;100.00;101414.63;5049215;28;20047;-82
2022/11/14 00:46:41;;;;;;;18.30;11.23;;;;;;;1.34;100.00;101414.63;5051099;28;20036;-82
2022/11/14 00:49:07;;;;;;;17.97;10.37;;;;;;;1.36;100.00;101417.91;5049298;28;20476;-83
2022/11/14 00:51:32;;;;;;;17.23;10.57;;;;;;;1.32;100.00;101416.63;5048635;28;20044;-82
2022/11/14 00:53:57;;;;;;;15.17;10.50;;;;;;;1.23;100.00;101418.53;5049370;28;20029;-83
2022/11/14 00:56:23;;;;;;;14.75;9.18;;;;;;;1.21;100.00;101409.94;5049158;28;20102;-83
2022/11/14 00:58:48;;;;;;;16.60;10.33;;;;;;;1.18;100.00;101411.16;5049898;28;20020;-82
2022/11/14 01:01:14;;;;;;;18.37;9.77;;;;;;;1.22;100.00;101401.03;5047646;28;20090;-82
2022/11/14 01:03:39;;;;;;;16.37;10.20;;;;;;;1.17;100.00;101392.84;5049718;28;20028;-83
2022/11/14 01:06:07;;;;;;;20.17;10.85;;;;;;;1.19;100.00;101386.34;5047805;28;20140;-83
2022/11/14 01:08:34;;;;;;;20.83;10.50;;;;;;;1.30;100.00;101393.00;5049473;28;20083;-82
2022/11/14 01:11:00;;;;;;;16.60;9.97;;;;;;;1.27;100.00;101396.03;5049389;28;20279;-82
2022/11/14 01:13:26;;;;;;;20.02;10.43;;;;;;;1.25;100.00;101384.00;5048338;28;20036;-82
2022/11/14 01:15:53;;;;;;;16.20;10.03;;;;;;;1.19;100.00;101373.16;5049102;28;20037;-82
2022/11/14 01:18:20;;;;;;;16.53;10.37;;;;;;;1.18;100.00;101368.06;5047653;28;20349;-84
2022/11/14 01:20:47;;;;;;;18.60;10.02;;;;;;;1.24;100.00;101377.06;5048606;28;20037;-83
2022/11/14 01:23:14;;;;;;;17.90;10.73;;;;;;;1.25;100.00;101371.63;5052140;28;20029;-83
2022/11/14 01:25:42;;;;;;;18.80;10.40;;;;;;;1.30;100.00;101360.50;5052688;28;20112;-83
2022/11/14 01:28:10;;;;;;;18.33;10.02;;;;;;;1.27;100.00;101353.78;5052807;28;20079;-83
2022/11/14 01:30:37;;;;;;;16.98;10.35;;;;;;;1.34;100.00;101357.31;5052730;28;20100;-83
2022/11/14 01:33:03;;;;;;;18.42;10.57;;;;;;;1.42;100.00;101351.13;5053186;28;20029;-83
2022/11/14 01:35:30;;;;;;;15.80;9.70;;;;;;;1.42;100.00;101352.97;5050965;28;20146;-83
2022/11/14 01:37:55;;;;;;;17.67;9.68;;;;;;;1.42;100.00;101347.69;5051399;28;20021;-83
2022/11/14 01:40:20;;;;;;;14.83;9.97;;;;;;;1.46;100.00;101355.03;5052735;28;20056;-84
2022/11/14 01:43:10;;;;;;;14.52;8.50;;;;;;;1.50;100.00;101352.84;5053007;28;20519;-84
2022/11/14 01:45:58;;;;;;;19.50;10.37;;;;;;;1.54;100.00;101354.13;5053050;28;20044;-84
2022/11/14 01:48:26;;;;;;;13.90;8.98;;;;;;;1.56;100.00;101349.47;5052705;28;20104;-83
2022/11/14 01:51:00;;;;;;;14.43;9.77;;;;;;;1.60;100.00;101348.09;5049836;28;20104;-83
2022/11/14 01:53:26;;;;;;;19.55;9.88;;;;;;;1.63;100.00;101349.53;5051040;28;20081;-83
2022/11/14 01:55:55;;;;;;;14.23;8.77;;;;;;;1.66;100.00;101339.41;5051669;28;20146;-83
2022/11/14 01:58:22;;;;;;;14.82;8.80;;;;;;;1.73;100.00;101338.69;5051445;28;20082;-83
2022/11/14 02:00:47;;;;;;;15.60;8.98;;;;;;;1.70;100.00;101344.34;5053167;28;20056;-84
2022/11/14 02:03:14;;;;;;;17.97;8.80;;;;;;;1.65;100.00;101336.97;5053175;28;20472;-83
2022/11/14 02:05:41;;;;;;;17.77;9.38;;;;;;;1.66;100.00;101339.41;5053820;28;20079;-83
2022/11/14 02:08:11;;;;;;;16.38;8.95;;;;;;;1.64;100.00;101332.69;5050542;28;20036;-84
2022/11/14 02:10:36;;;;;;;14.00;8.75;;;;;;;1.59;100.00;101338.53;5049167;28;20017;-84
2022/11/14 02:13:02;;;;;;;12.97;9.03;;;;;;;1.56;100.00;101338.91;5051993;28;20560;-84
2022/11/14 02:15:27;;;;;;;14.33;8.67;;;;;;;1.55;100.00;101337.25;5051273;28;20123;-83
2022/11/14 02:17:53;;;;;;;14.90;9.10;;;;;;;1.53;100.00;101333.19;5052595;28;20074;-83
2022/11/14 02:20:27;;;;;;;11.83;8.23;;;;;;;1.38;100.00;101323.44;5052280;28;20021;-84
2022/11/14 02:22:53;;;;;;;12.27;7.20;;;;;;;1.25;100.00;101329.38;5050121;28;20287;-84
2022/11/14 02:25:18;;;;;;;14.85;7.78;;;;;;;1.11;100.00;101314.34;5048911;28;20480;-84
2022/11/14 02:27:45;;;;;;;13.60;7.67;;;;;;;1.04;100.00;101330.94;5051849;28;20060;-84
2022/11/14 02:30:18;;;;;;;13.38;8.32;;;;;;;1.01;100.00;101320.75;5050729;28;20025;-83
2022/11/14 02:32:43;;;;;;;12.10;7.72;;;;;;;0.94;100.00;101306.63;5051075;28;20413;-84
2022/11/14 02:35:08;;;;;;;12.13;7.97;;;;;;;0.92;100.00;101299.91;5049863;28;20108;-83
2022/11/14 02:37:36;;;;;;;15.70;8.52;;;;;;;0.98;100.00;101305.25;5050461;28;20116;-83
2022/11/14 02:40:01;;;;;;;13.13;8.68;;;;;;;0.98;100.00;101312.38;5050981;28;20041;-83
2022/11/14 02:42:27;;;;;;;13.13;8.13;;;;;;;0.89;100.00;101309.00;5048168;28;20056;-83
2022/11/14 02:44:53;;;;;;;16.05;8.15;;;;;;;0.76;100.00;101312.25;5051795;28;20029;-83
2022/11/14 02:47:18;;;;;;;14.03;8.10;;;;;;;0.75;100.00;101313.25;5050659;28;20025;-83
2022/11/14 02:49:43;;;;;;;18.10;8.33;;;;;;;0.73;100.00;101313.44;5050435;28;20041;-83
2022/11/14 02:52:09;;;;;;;13.53;8.10;;;;;;;0.69;100.00;101300.78;5051791;28;20267;-84
2022/11/14 02:54:34;;;;;;;15.13;8.00;;;;;;;0.58;100.00;101289.69;5050832;28;20033;-82
2022/11/14 02:56:59;;;;;;;14.00;8.07;;;;;;;0.59;100.00;101295.75;5051531;28;20021;-84
2022/11/14 02:59:24;;;;;;;13.03;8.10;;;;;;;0.54;100.00;101287.59;5048760;28;20028;-85
2022/11/14 03:01:50;;;;;;;15.43;7.60;;;;;;;0.51;100.00;101291.38;5049652;28;20468;-84
2022/11/14 03:04:15;;;;;;;12.07;7.77;;;;;;;0.36;100.00;101283.47;5048581;28;20031;-84
2022/11/14 03:06:41;;;;;;;10.68;7.72;;;;;;;0.38;100.00;101291.19;5049059;28;20040;-85
2022/11/14 03:09:06;;;;;;;12.33;7.43;;;;;;;0.33;100.00;101285.63;5050816;28;20494;-84
2022/11/14 03:11:31;;;;;;;13.20;7.80;;;;;;;0.30;100.00;101289.44;5049799;28;20362;-85
2022/11/14 03:13:58;;;;;;;11.80;7.53;;;;;;;0.20;100.00;101281.78;5050265;28;20372;-84
2022/11/14 03:16:24;;;;;;;12.82;7.53;;;;;;;0.13;100.00;101276.41;5047590;28;20138;-83
2022/11/14 03:18:49;;;;;;;11.80;8.03;;;;;;;0.16;100.00;101279.69;5050821;28;20640;-82
2022/11/14 03:21:19;;;;;;;13.63;7.97;;;;;;;0.20;100.00;101275.69;5049609;28;20033;-83
2022/11/14 03:23:46;;;;;;;16.38;8.15;;;;;;;0.13;100.00;101271.13;5051047;28;20033;-84
2022/11/14 03:26:13;;;;;;;14.65;7.97;;;;;;;0.10;100.00;101281.19;5048490;28;20090;-85
2022/11/14 03:28:39;;;;;;;12.63;7.53;;;;;;;0.04;100.00;101282.72;5050352;28;20061;-83
2022/11/14 03:31:05;;;;;;;11.20;7.25;;;;;;;-0.01;100.00;101279.81;5048669;28;20074;-83
2022/11/14 03:33:31;;;;;;;12.80;7.78;;;;;;;-0.08;100.00;101279.66;5049059;28;20497;-83
2022/11/14 03:35:57;;;;;;;13.23;8.23;;;;;;;-0.12;100.00;101278.41;5050958;28;20061;-82
2022/11/14 03:38:22;;;;;;;13.38;8.07;;;;;;;-0.16;100.00;101277.91;5050488;28;20482;-85
2022/11/14 03:40:50;;;;;;;15.40;8.23;;;;;;;-0.14;100.00;101283.03;5049411;28;20025;-85
2022/11/14 03:43:17;;;;;;;12.55;8.10;;;;;;;-0.16;100.00;101271.84;5050413;28;20021;-82
2022/11/14 03:45:42;;;;;;;12.23;7.53;;;;;;;-0.21;100.00;101264.47;5049996;28;20112;-82
2022/11/14 03:48:07;;;;;;;16.67;8.77;;;;;;;-0.19;100.00;101265.13;5049219;28;20155;-83
2022/11/14 03:50:33;;;;;;;12.80;7.60;;;;;;;-0.19;100.00;101269.56;5049625;28;20043;-83
2022/11/14 03:52:58;;;;;;;13.77;8.23;;;;;;;-0.24;100.00;101258.72;5048676;28;20025;-83
2022/11/14 03:55:24;;;;;;;16.30;7.70;;;;;;;-0.19;100.00;101259.84;5050091;28;20396;-83
2022/11/14 03:57:49;;;;;;;12.87;7.67;;;;;;;-0.22;100.00;101270.75;5049373;28;20025;-83
2022/11/14 04:00:15;;;;;;;13.20;7.87;;;;;;;-0.20;100.00;101262.66;5049216;28;20096;-83
2022/11/14 04:02:42;;;;;;;15.38;8.00;;;;;;;-0.23;100.00;101248.03;5048298;28;20064;-83
2022/11/14 04:05:08;;;;;;;12.55;8.40;;;;;;;-0.16;100.00;101256.03;5049325;28;20047;-83
2022/11/14 04:07:33;;;;;;;16.55;8.82;;;;;;;-0.16;100.00;101254.22;5049596;28;20376;-83
2022/11/14 04:09:58;;;;;;;16.43;8.60;;;;;;;-0.22;100.00;101243.56;5049687;28;20024;-83
2022/11/14 04:12:24;;;;;;;12.30;8.03;;;;;;;-0.23;100.00;101240.13;5049577;28;20122;-83
2022/11/14 04:14:49;;;;;;;12.15;8.10;;;;;;;-0.36;100.00;101226.69;5048881;28;20513;-83
2022/11/14 04:17:14;;;;;;;13.40;8.30;;;;;;;-0.39;100.00;101233.13;5049686;28;20096;-82
2022/11/14 04:19:40;;;;;;;15.27;7.50;;;;;;;-0.41;100.00;101236.94;5048375;28;20550;-83
2022/11/14 04:22:05;;;;;;;12.13;7.27;;;;;;;-0.44;100.00;101237.28;5050033;28;20060;-83
2022/11/14 04:24:30;;;;;;;10.37;7.70;;;;;;;-0.53;100.00;101213.63;5048556;28;20129;-83
2022/11/14 04:26:56;;;;;;;11.47;7.97;;;;;;;-0.46;100.00;101225.13;5049837;28;20025;-83
2022/11/14 04:29:21;;;;;;;12.73;7.80;;;;;;;-0.53;100.00;101218.91;5048772;28;20398;-83
2022/11/14 04:31:46;;;;;;;12.40;8.20;;;;;;;-0.49;100.00;101222.03;5047835;28;20720;-83
2022/11/14 04:34:11;;;;;;;14.07;7.83;;;;;;;-0.46;100.00;101229.59;5047995;28;20037;-86
2022/11/14 04:36:37;;;;;;;12.33;8.30;;;;;;;-0.46;100.00;101227.75;5048563;28;20032;-84
2022/11/14 04:39:03;;;;;;;11.70;7.67;;;;;;;-0.42;100.00;101228.22;5045077;28;20440;-85
2022/11/14 04:41:29;;;;;;;12.00;7.70;;;;;;;-0.51;100.00;101214.28;5048889;28;20109;-83
2022/11/14 04:43:54;;;;;;;15.43;8.00;;;;;;;-0.43;100.00;101225.78;5049079;28;20108;-83
2022/11/14 04:46:19;;;;;;;15.23;9.20;;;;;;;-0.42;100.00;101228.22;5049514;28;20100;-83
2022/11/14 04:48:45;;;;;;;13.40;8.50;;;;;;;-0.47;100.00;101212.16;5044022;28;20064;-83
2022/11/14 04:51:10;;;;;;;12.53;8.33;;;;;;;-0.46;100.00;101214.59;5050335;28;20307;-83
2022/11/14 04:53:36;;;;;;;14.60;8.67;;;;;;;-0.36;100.00;101219.63;5051165;28;20029;-83
2022/11/14 04:56:03;;;;;;;11.47;8.10;;;;;;;-0.35;100.00;101213.38;5050337;28;20090;-83
2022/11/14 04:58:28;;;;;;;14.20;8.88;;;;;;;-0.33;100.00;101205.28;5053490;28;20110;-83
2022/11/14 05:00:56;;;;;;;15.15;8.90;;;;;;;-0.26;100.00;101213.28;5048132;28;20492;-83
2022/11/14 05:03:23;;;;;;;19.13;8.90;;;;;;;-0.27;100.00;101212.50;5052148;28;20025;-84
2022/11/14 05:05:49;;;;;;;16.67;8.10;;;;;;;-0.23;100.00;101223.47;5052094;28;20459;-84
2022/11/14 05:08:14;;;;;;;14.90;8.75;;;;;;;-0.20;100.00;101213.44;5053246;28;20147;-84
2022/11/14 05:10:44;;;;;;;15.37;9.57;;;;;;;-0.18;100.00;101210.59;5051637;28;20059;-84
2022/11/14 05:13:11;;;;;;;14.60;9.25;;;;;;;-0.21;100.00;101208.31;5050969;28;20120;-83
2022/11/14 05:15:36;;;;;;;16.40;8.88;;;;;;;-0.26;100.00;101203.59;5052567;28;20032;-84
2022/11/14 05:18:02;;;;;;;15.97;9.07;;;;;;;-0.22;100.00;101204.88;5051304;28;20028;-84
2022/11/14 05:20:27;;;;;;;14.55;8.60;;;;;;;-0.24;100.00;101192.88;5050782;28;20033;-84
2022/11/14 05:22:54;;;;;;;16.40;9.03;;;;;;;-0.25;100.00;101199.97;5050679;28;20041;-83
2022/11/14 05:25:20;;;;;;;16.57;9.33;;;;;;;-0.31;100.00;101184.84;5052230;28;20108;-83
2022/11/14 05:27:46;;;;;;;13.97;8.90;;;;;;;-0.24;100.00;101198.97;5051722;28;20387;-84
2022/11/14 05:30:11;;;;;;;14.20;8.45;;;;;;;-0.26;100.00;101200.97;5051492;28;20099;-83
2022/11/14 05:32:37;;;;;;;15.13;9.00;;;;;;;-0.27;100.00;101185.34;5052715;28;20040;-83
2022/11/14 05:35:03;;;;;;;15.88;9.68;;;;;;;-0.37;100.00;101169.78;5050816;28;20025;-83
2022/11/14 05:37:43;;;;;;;14.43;8.70;;;;;;;-0.29;100.00;101184.69;5219024;22;20020;-84
2022/11/14 05:40:16;;;;;;;15.13;8.98;;;;;;;-0.53;100.00;101154.91;5050841;28;20059;-82
2022/11/14 05:42:57;;;;;;;;;;;;;;;;;;;;;
2022/11/14 05:45:39;;;;;;;16.95;9.63;;;;;;;-0.58;100.00;101134.38;5049839;28;20231;-84
2022/11/14 05:48:05;;;;;;;19.52;9.95;;;;;;;-0.32;100.00;101178.78;5051752;28;20413;-84
2022/11/14 05:50:30;;;;;;;13.80;8.80;;;;;;;-0.28;100.00;101173.97;5062625;28;20035;-86
2022/11/14 05:53:01;;;;;;;21.47;9.60;;;;;;;-0.46;100.00;101137.44;5056699;28;20032;-87
2022/11/14 05:55:27;;;;;;;15.20;9.43;;;;;;;-0.25;100.00;101167.53;5060002;28;20083;-84
2022/11/14 05:57:57;;;;;;;18.02;8.63;;;;;;;-0.32;100.00;101152.44;5040539;28;20108;-88
2022/11/14 06:00:22;;;;;;;19.73;9.80;;;;;;;-0.25;100.00;101167.53;5052478;28;20488;-85
2022/11/14 06:02:51;;;;;;;17.03;8.67;;;;;;;-0.27;100.00;101169.53;5053219;28;20036;-85
2022/11/14 06:05:16;;;;;;;19.77;9.93;;;;;;;-0.33;100.00;101155.25;5070118;28;20503;-87
2022/11/14 06:07:41;;;;;;;19.97;8.93;;;;;;;-0.34;100.00;101170.25;5072336;28;20028;-87
2022/11/14 06:10:07;;;;;;;17.83;9.00;;;;;;;-0.44;100.00;101169.63;5065579;28;20021;-85
2022/11/14 06:12:34;;;;;;;12.40;8.40;;;;;;;-0.58;100.00;101159.88;5053139;28;20418;-86
2022/11/14 06:14:59;;;;;;;14.93;8.00;;;;;;;-0.68;100.00;101154.84;5072495;28;20055;-86
2022/11/14 06:17:24;;;;;;;10.37;7.33;;;;;;;-0.68;100.00;101176.72;5071802;28;20298;-86
2022/11/14 06:19:50;;;;;;;12.53;8.53;;;;;;;-0.88;100.00;101162.38;5071750;28;20538;-86
2022/11/14 06:22:15;;;;;;;17.43;8.03;;;;;;;-0.92;100.00;101170.63;5072002;28;20038;-86
2022/11/14 06:24:42;;;;;;;16.10;8.23;;;;;;;-0.92;100.00;101177.69;5061468;28;20059;-86
2022/11/14 06:27:07;;;;;;;12.40;8.25;;;;;;;-1.02;100.00;101164.75;5054807;28;20085;-86
2022/11/14 06:29:34;;;;;;;14.30;7.93;;;;;;;-0.91;100.00;101179.31;5069443;28;20598;-86
2022/11/14 06:32:00;;;;;;;16.80;8.13;;;;;;;-0.92;100.00;101188.22;5055559;28;20052;-86
2022/11/14 06:34:26;;;;;;;16.57;8.47;;;;;;;-0.94;100.00;101179.69;5054954;28;20492;-86
2022/11/14 06:36:54;;;;;;;15.27;8.40;;;;;;;-1.02;100.00;101162.13;5062753;28;20083;-90
2022/11/14 06:39:21;;;;;;;18.92;9.02;;;;;;;-0.98;100.00;101167.84;5063094;28;20047;-86
2022/11/14 06:41:46;;;;;;;18.30;8.80;;;;;;;-0.96;100.00;101177.22;5058979;28;20060;-86
2022/11/14 06:44:13;;;;;;;17.30;9.13;;;;;;;-1.01;100.00;101179.56;5053219;28;20049;-88
2022/11/14 06:46:39;;;;;;;19.27;9.40;;;;;;;-1.01;100.00;101171.66;5052193;28;20027;-86
2022/11/14 06:49:04;;;;;;;22.95;11.45;;;;;;;-1.04;100.00;101171.16;5051742;28;20391;-86
2022/11/14 06:51:30;;;;;;;22.07;10.63;;;;;;;-1.04;100.00;101174.63;5048611;28;20025;-85
2022/11/14 06:53:56;;;;;;;20.53;10.97;;;;;;;-0.91;100.00;101189.84;5046516;28;20073;-85
2022/11/14 06:56:26;;;;;;;22.23;11.00;;;;;;;-0.91;100.00;101179.31;5049752;28;20033;-84
2022/11/14 06:58:52;;;;;;;47.15;19.17;;;;;;;-0.88;100.00;101191.31;5049927;28;20408;-84
2022/11/14 07:01:27;;;;;;;51.92;22.58;;;;;;;-0.91;100.00;101192.47;5048012;28;20017;-84
2022/11/14 07:03:53;;;;;;;35.83;14.90;;;;;;;-0.95;100.00;101189.38;5046067;28;20029;-86
2022/11/14 07:06:21;;;;;;;29.33;14.70;;;;;;;-1.03;100.00;101189.44;5051425;28;20289;-85
2022/11/14 07:08:46;;;;;;;23.10;12.57;;;;;;;-1.04;100.00;101197.47;5035130;28;20037;-85
2022/11/14 07:11:22;;;;;;;20.67;11.45;;;;;;;-1.08;100.00;101195.19;5049295;28;20032;-85
2022/11/14 07:14:00;;;;;;;18.47;10.27;;;;;;;-1.10;100.00;101191.94;5061584;28;20060;-85
2022/11/14 07:16:30;;;;;;;15.38;8.98;;;;;;;-1.11;100.00;101187.66;5049012;28;20040;-85
2022/11/14 07:19:01;;;;;;;20.83;9.70;;;;;;;-1.16;100.00;101182.09;5050040;28;20139;-87
2022/11/14 07:21:30;;;;;;;17.42;9.73;;;;;;;-1.12;100.00;101196.53;5049338;28;20438;-86
2022/11/14 07:23:56;;;;;;;15.27;9.20;;;;;;;-1.05;100.00;101195.84;5049478;28;20029;-86
2022/11/14 07:26:22;;;;;;;15.65;9.18;;;;;;;-1.04;100.00;101190.41;5048586;28;20068;-86
2022/11/14 07:28:48;;;;;;;18.45;9.13;;;;;;;-0.98;100.00;101196.81;5046890;28;20057;-85
2022/11/14 07:31:15;;;;;;;14.87;9.13;;;;;;;-0.93;100.00;101197.91;5060211;28;20037;-85
2022/11/14 07:33:41;;;;;;;17.52;9.65;;;;;;;-0.89;100.00;101187.84;5014979;28;20489;-84
2022/11/14 07:36:07;;;;;;;15.65;10.18;;;;;;;-0.86;100.00;101182.25;5056726;28;20032;-86
2022/11/14 07:38:34;;;;;;;18.65;9.88;;;;;;;-0.77;100.00;101185.66;5058260;28;20023;-87
2022/11/14 07:41:04;;;;;;;19.65;11.55;;;;;;;-0.65;100.00;101176.41;5050096;28;20010;-86
2022/11/14 07:43:31;;;;;;;17.58;10.60;;;;;;;-0.64;100.00;101164.03;5061269;28;20377;-86
2022/11/14 07:46:11;;;;;;;16.98;10.95;;;;;;;-0.47;100.00;101176.09;5031187;28;20037;-85
2022/11/14 07:48:37;;;;;;;18.10;10.83;;;;;;;-0.38;100.00;101173.41;5055647;28;20071;-86
2022/11/14 07:51:05;;;;;;;29.40;11.27;;;;;;;-0.29;100.00;101179.44;5046017;28;20622;-85
2022/11/14 07:53:31;;;;;;;18.15;10.63;;;;;;;-0.25;100.00;101171.00;5031126;28;20055;-86
2022/11/14 07:56:01;;;;;;;19.17;10.75;;;;;;;-0.26;100.00;101179.06;5036966;28;20376;-89
2022/11/14 07:58:26;;;;;;;19.25;10.88;;;;;;;-0.24;100.00;101167.38;5029502;28;20550;-84
2022/11/14 08:00:54;;;;;;;19.73;10.67;;;;;;;-0.12;100.00;101167.75;5046795;28;20025;-84
2022/11/14 08:03:19;;;;;;;22.88;11.15;;;;;;;-0.06;100.00;101158.31;5044185;28;20037;-84
2022/11/14 08:05:44;;;;;;;21.03;11.20;;;;;;;-0.06;100.00;101159.13;5058019;28;20454;-86
2022/11/14 08:08:12;;;;;;;19.50;10.27;;;;;;;0.05;100.00;101164.97;5029267;28;20490;-87
2022/11/14 08:10:39;;;;;;;20.48;11.00;;;;;;;0.03;100.00;101151.16;5048036;28;20051;-86
2022/11/14 08:13:08;;;;;;;20.83;10.40;;;;;;;0.16;100.00;101158.44;5038325;28;20049;-88
2022/11/14 08:15:33;;;;;;;20.98;10.38;;;;;;;0.12;100.00;101145.63;5047613;28;20025;-87
2022/11/14 08:17:59;;;;;;;24.83;11.53;;;;;;;0.29;100.00;101148.88;5049304;28;20029;-89
2022/11/14 08:20:26;;;;;;;19.50;10.98;;;;;;;0.43;100.00;101152.53;5045953;28;20388;-86
2022/11/14 08:22:53;;;;;;;21.88;12.40;;;;;;;0.48;100.00;101140.63;5046539;28;20033;-86
2022/11/14 08:25:18;;;;;;;21.53;12.17;;;;;;;0.66;100.00;101154.25;5013360;28;20447;-88
2022/11/14 08:27:46;;;;;;;20.40;11.77;;;;;;;0.71;100.00;101151.91;5030963;28;20409;-87
2022/11/14 08:30:14;;;;;;;22.90;12.48;;;;;;;0.88;100.00;101149.03;5018363;28;20783;-88
2022/11/14 08:32:39;;;;;;;21.97;12.30;;;;;;;0.96;100.00;101145.47;5028407;28;20430;-87
2022/11/14 08:35:05;;;;;;;20.67;12.07;;;;;;;1.02;100.00;101148.19;5050077;28;20291;-89
2022/11/14 08:37:31;;;;;;;20.20;12.70;;;;;;;1.02;100.00;101129.72;5049774;28;20033;-89
2022/11/14 08:39:58;;;;;;;20.55;12.35;;;;;;;1.14;100.00;101123.91;5048943;28;20594;-89
2022/11/14 08:42:23;;;;;;;27.65;13.27;;;;;;;1.26;100.00;101127.72;5052287;28;20040;-89
2022/11/14 08:44:49;;;;;;;23.43;12.90;;;;;;;1.35;100.00;101125.78;5045088;28;20424;-90
2022/11/14 08:47:14;;;;;;;23.43;12.53;;;;;;;1.51;100.00;101141.34;5034769;28;20068;-89
2022/11/14 08:49:39;;;;;;;21.90;12.30;;;;;;;1.58;100.00;101132.66;5051761;28;20021;-90
2022/11/14 08:52:05;;;;;;;24.73;13.70;;;;;;;1.76;100.00;101132.22;5054200;28;20055;-89
2022/11/14 08:54:30;;;;;;;23.08;15.00;;;;;;;1.85;100.00;101138.97;5053344;28;20072;-90
2022/11/14 08:56:58;;;;;;;26.67;14.37;;;;;;;1.98;100.00;101129.53;5052891;28;20025;-89
2022/11/14 08:59:23;;;;;;;26.08;15.07;;;;;;;2.15;100.00;101135.31;5033695;28;20037;-89
2022/11/14 09:01:51;;;;;;;24.63;13.47;;;;;;;2.21;100.00;101130.06;5024210;28;20096;-89
2022/11/14 09:04:16;;;;;;;27.77;13.88;;;;;;;2.26;100.00;101124.22;5065119;28;20111;-89
2022/11/14 09:06:45;;;;;;;26.27;14.83;;;;;;;2.49;100.00;101134.50;5060100;28;20116;-88
2022/11/14 09:09:10;;;;;;;21.13;12.80;;;;;;;2.58;100.00;101127.22;5051253;28;20033;-89
2022/11/14 09:11:35;;;;;;;23.93;14.93;;;;;;;2.71;100.00;101129.09;5052275;28;20365;-90
2022/11/14 09:14:01;;;;;;;21.63;13.43;;;;;;;2.77;100.00;101107.13;5049284;28;20116;-89
2022/11/14 09:16:27;;;;;;;20.87;13.07;;;;;;;3.03;100.00;101121.44;5047397;28;20120;-88
2022/11/14 09:18:52;;;;;;;19.47;12.30;;;;;;;3.08;100.00;101103.13;5044906;28;20405;-88
2022/11/14 09:21:20;;;;;;;21.10;12.50;;;;;;;3.29;100.00;101118.03;5045530;28;20480;-90
2022/11/14 09:23:46;;;;;;;20.45;11.35;;;;;;;3.37;100.00;101117.03;5045328;28;20078;-89
2022/11/14 09:26:14;;;;;;;21.92;11.40;;;;;;;3.44;100.00;101101.97;5047790;28;20392;-89
2022/11/14 09:28:40;;;;;;;19.60;11.23;;;;;;;3.47;100.00;101104.19;5035617;28;20534;-91
2022/11/14 09:31:11;;;;;;;18.90;12.27;;;;;;;3.64;100.00;101106.44;5053078;28;20053;-92
2022/11/14 09:33:36;;;;;;;19.63;11.88;;;;;;;3.71;100.00;101103.78;5052315;28;20033;-92
2022/11/14 09:36:05;;;;;;;17.00;11.27;;;;;;;3.81;100.00;101106.03;5080488;28;20480;-91
2022/11/14 09:38:30;;;;;;;19.42;11.35;;;;;;;3.84;100.00;101105.59;5056012;28;20047;-92
2022/11/14 09:41:10;;;;;;;23.10;13.07;;;;;;;4.01;100.00;101090.06;5062862;28;20033;-91
2022/11/14 09:43:56;;;;;;;18.77;11.82;;;;;;;4.05;100.00;101092.09;5048414;28;20059;-91
2022/11/14 09:46:26;;;;;;;19.52;11.48;;;;;;;4.06;100.00;101109.63;5040749;28;20033;-91
2022/11/14 09:51:40;;;;;;;21.30;12.47;;;;;;;3.89;100.00;101053.59;5028970;28;20347;-90
2022/11/14 09:54:20;;;;;;;19.58;12.30;;;;;;;4.28;100.00;101095.31;5013536;28;20068;-88
2022/11/14 09:56:50;;;;;;;20.52;11.43;;;;;;;4.51;100.00;101118.72;5013731;28;20477;-89
2022/11/14 09:59:26;;;;;;;;;;;;;;;;;;;;;
2022/11/14 10:02:04;;;;;;;21.77;11.85;;;;;;;4.65;100.00;101107.00;5032713;28;20036;-89
2022/11/14 10:04:48;;;;;;;20.15;12.05;;;;;;;4.67;100.00;101115.59;5031716;28;20033;-92
2022/11/14 10:07:27;;;;;;;24.30;11.73;;;;;;;4.70;100.00;101106.38;5030763;28;20065;-90
2022/11/14 10:10:08;;;;;;;16.53;11.33;;;;;;;4.74;100.00;101107.59;5031377;28;20040;-92
2022/11/14 10:12:39;;;;;;;21.40;12.37;;;;;;;4.79;100.00;101107.78;5032804;28;20304;-93
2022/11/14 10:15:24;;;;;;;20.05;13.05;;;;;;;4.86;100.00;101102.41;5030998;28;20120;-94
2022/11/14 10:18:16;;;;;;;20.85;12.80;;;;;;;4.91;100.00;101094.63;5043443;28;20029;-94
2022/11/14 10:20:54;;;;;;;21.30;13.00;;;;;;;4.99;100.00;101101.53;5053203;28;20015;-93
2022/11/14 10:23:32;;;;;;;23.00;13.18;;;;;;;5.10;100.00;101102.69;5053969;28;20040;-96
2022/11/14 10:26:14;;;;;;;22.92;13.40;;;;;;;5.13;100.00;101083.66;5057129;28;20060;-92
2022/11/14 10:28:51;;;;;;;21.55;12.98;;;;;;;5.36;100.00;101095.56;5028183;28;20088;-93
2022/11/14 10:31:35;;;;;;;21.73;13.07;;;;;;;5.46;100.00;101099.34;5037875;28;20034;-92
2022/11/14 10:34:16;;;;;;;21.95;14.10;;;;;;;5.52;100.00;101089.69;5020269;28;20030;-91
2022/11/14 10:37:16;;;;;;;21.93;13.00;;;;;;;5.67;100.00;101101.84;5025363;28;20028;-94
2022/11/14 10:39:51;;;;;;;20.37;12.60;;;;;;;5.74;100.00;101100.78;5038592;28;20276;-95
2022/11/14 10:42:25;;;;;;;23.25;12.98;;;;;;;5.82;100.00;101098.84;5035223;28;20018;-96
2022/11/14 10:45:00;;;;;;;24.52;13.77;;;;;;;5.79;100.00;101083.31;5033633;28;20030;-92
2022/11/14 10:47:34;;;;;;;19.67;12.23;;;;;;;5.88;100.00;101090.81;5031151;28;20029;-93
2022/11/14 10:50:18;;;;;;;25.05;13.07;;;;;;;5.99;100.00;101091.13;5021141;28;20501;-93
2022/11/14 10:52:45;;;;;;;24.08;14.38;;;;;;;5.99;100.00;101083.16;5031223;28;20037;-91
2022/11/14 10:55:16;;;;;;;20.67;13.40;;;;;;;6.11;100.00;101093.91;5041872;28;20079;-93
2022/11/14 10:57:44;;;;;;;22.05;14.63;;;;;;;6.03;100.00;101065.72;5022555;28;20045;-93
2022/11/14 11:00:15;;;;;;;22.23;13.05;;;;;;;6.21;100.00;101081.69;5015518;28;20026;-93
2022/11/14 11:02:52;;;;;;;22.40;13.43;;;;;;;6.30;100.00;101079.53;5016186;28;20026;-92
2022/11/14 11:05:21;;;;;;;20.27;13.07;;;;;;;6.26;100.00;101072.22;5032813;28;20276;-93
2022/11/14 11:13:49;;;;;;;22.17;14.23;;;;;;;6.61;100.00;101067.09;5029031;28;20133;-91
2022/11/14 11:16:20;;;;;;;23.67;12.88;;;;;;;6.61;100.00;101052.94;5030119;28;20026;-95
2022/11/14 11:18:45;;;;;;;24.95;14.80;;;;;;;6.76;100.00;101049.88;5032237;28;20029;-94
2022/11/14 11:21:13;;;;;;;25.00;15.43;;;;;;;6.86;100.00;101047.47;5032875;28;20025;-95
2022/11/14 11:23:53;;;;;;;23.83;14.05;;;;;;;6.90;100.00;101039.88;5026539;28;20531;-91